Nichiryu Maru — JG5632 — position and weather

sailwx.info

Track history (hours):
 
Tides and Currents Weather Stations Pressure Air Temp Water Temp Dewpoint Dewpoint Depression Visibility Wind Speed Wind Dir Waves Ship Positions

Nichiryu Maru

Last reported at 2016-Apr-25 11:22 UTC. Time now 2016-May-05 12:17 UTC.
Position N 34°58' E 139°31'.
Warning: this ship's position is 10 days out of date.

Length 158 m; draft 6.5 m.

Type: Cargo ship. MMSI: 43100939.

Date/timePositionNaut miles runAvg speedWind from/ knotsBaromVisibWave heightAir tempDewpointWater temp
2016-Apr-25 11:22N 34°58' E 139°31'1518.1
2016-Apr-25 10:33N 35°08' E 139°44'1110.8
2016-Apr-25 09:33N 35°19' E 139°41'2 1.8
2016-Apr-25 08:32N 35°19' E 139°39'0 0.0
2016-Apr-25 07:20N 35°19' E 139°39'0 0.0
2016-Apr-25 06:32N 35°19' E 139°39'0 0.0
2016-Apr-25 05:32N 35°19' E 139°39'0 0.0
2016-Apr-25 04:32N 35°19' E 139°39'0 0.0
2016-Apr-25 03:29N 35°19' E 139°39'0 0.0
2016-Apr-25 02:32N 35°19' E 139°39'0 0.0
2016-Apr-25 01:32N 35°19' E 139°39'0 0.0
2016-Apr-25 00:29N 35°19' E 139°39'0 0.0
2016-Apr-24 23:33N 35°19' E 139°39'2 1.8
2016-Apr-24 22:34N 35°20' E 139°41'0 0.1
2016-Apr-24 21:32N 35°20' E 139°41'0 0.0
2016-Apr-24 20:32N 35°20' E 139°41'0 0.0
2016-Apr-24 19:32N 35°20' E 139°41'0 0.0
2016-Apr-24 18:32N 35°20' E 139°41'0 0.0
2016-Apr-24 17:32N 35°20' E 139°41'0 0.0
2016-Apr-24 16:32N 35°20' E 139°41'0 0.0
2016-Apr-24 15:29N 35°20' E 139°41'0 0.1
2016-Apr-24 14:32N 35°20' E 139°41'0 0.0
2016-Apr-24 13:32N 35°20' E 139°41'0 0.5
2016-Apr-24 12:33N 35°19' E 139°42'1211.8
2016-Apr-24 11:33N 35°08' E 139°45'  
2016-Apr-21 14:20N 34°27' E 138°28'6316.7
2016-Apr-21 10:31N 35°01' E 139°33'1616.5
2016-Apr-21 09:33N 35°13' E 139°46'9 8.2
2016-Apr-21 08:31N 35°19' E 139°39'0 0.0
2016-Apr-21 07:19N 35°19' E 139°39'0 0.0
2016-Apr-21 06:31N 35°19' E 139°39'0 0.0
2016-Apr-21 05:31N 35°19' E 139°39'0 0.0
2016-Apr-21 04:31N 35°19' E 139°39'0 0.5
2016-Apr-21 03:34N 35°19' E 139°40'10 9.6
2016-Apr-21 02:34N 35°11' E 139°47'2317.1
2016-Apr-21 01:11N 34°54' E 139°27'  
2016-Apr-18 15:15N 34°30' E 138°32'5116.5
2016-Apr-18 12:10N 34°54' E 139°27'1117.7
2016-Apr-18 11:32N 35°02' E 139°37'1515.4
2016-Apr-18 10:34N 35°15' E 139°46'7 6.5
2016-Apr-18 09:28N 35°19' E 139°39'0 0.0
2016-Apr-18 08:22N 35°19' E 139°39'0 0.0
2016-Apr-18 07:31N 35°19' E 139°39'0 0.0
2016-Apr-18 06:31N 35°19' E 139°39'0 0.0
2016-Apr-18 05:31N 35°19' E 139°39'0 0.0
2016-Apr-18 04:25N 35°19' E 139°39'0 0.0
2016-Apr-18 03:25N 35°19' E 139°39'0 0.0
2016-Apr-18 02:31N 35°19' E 139°39'0 0.0
2016-Apr-18 01:28N 35°19' E 139°39'0 0.0
2016-Apr-18 00:19N 35°19' E 139°39'0 0.0
2016-Apr-17 23:31N 35°19' E 139°39'2 1.9
2016-Apr-17 22:33N 35°19' E 139°41'0 0.0
2016-Apr-17 21:33N 35°19' E 139°41'0 0.1
2016-Apr-17 20:32N 35°19' E 139°41'0 0.0
2016-Apr-17 19:32N 35°19' E 139°41'0 0.0
2016-Apr-17 18:31N 35°19' E 139°41'0 0.0
2016-Apr-17 17:33N 35°19' E 139°41'0 0.0
2016-Apr-17 16:30N 35°19' E 139°41'0 0.1
2016-Apr-17 15:30N 35°19' E 139°41'0 0.1
2016-Apr-17 14:33N 35°19' E 139°41'0 0.0
2016-Apr-17 13:23N 35°19' E 139°41'0 0.0
2016-Apr-17 12:33N 35°19' E 139°41'9 9.3
2016-Apr-17 11:33N 35°11' E 139°47'  
Track history (hours):
 
Tides and Currents Weather Stations Pressure Air Temp Water Temp Dewpoint Dewpoint Depression Visibility Wind Speed Wind Dir Waves Ship Positions

Nichiryu Maru

Last reported at 2016-Apr-25 11:22 UTC. Time now 2016-May-05 12:18 UTC.
Position N 34°58' E 139°31'.
Warning: this ship's position is 10 days out of date.

Length 158 m; draft 6.5 m.

Type: Cargo ship. MMSI: 43100939.

Date/timePositionNaut miles runAvg speedWind from/ knotsBaromVisibWave heightAir tempDewpointWater temp
2016-Apr-25 11:22N 34°58' E 139°31'1518.1
2016-Apr-25 10:33N 35°08' E 139°44'1110.8
2016-Apr-25 09:33N 35°19' E 139°41'2 1.8
2016-Apr-25 08:32N 35°19' E 139°39'0 0.0
2016-Apr-25 07:20N 35°19' E 139°39'0 0.0
2016-Apr-25 06:32N 35°19' E 139°39'0 0.0
2016-Apr-25 05:32N 35°19' E 139°39'0 0.0
2016-Apr-25 04:32N 35°19' E 139°39'0 0.0
2016-Apr-25 03:29N 35°19' E 139°39'0 0.0
2016-Apr-25 02:32N 35°19' E 139°39'0 0.0
2016-Apr-25 01:32N 35°19' E 139°39'0 0.0
2016-Apr-25 00:29N 35°19' E 139°39'0 0.0
2016-Apr-24 23:33N 35°19' E 139°39'2 1.8
2016-Apr-24 22:34N 35°20' E 139°41'0 0.1
2016-Apr-24 21:32N 35°20' E 139°41'0 0.0
2016-Apr-24 20:32N 35°20' E 139°41'0 0.0
2016-Apr-24 19:32N 35°20' E 139°41'0 0.0
2016-Apr-24 18:32N 35°20' E 139°41'0 0.0
2016-Apr-24 17:32N 35°20' E 139°41'0 0.0
2016-Apr-24 16:32N 35°20' E 139°41'0 0.0
2016-Apr-24 15:29N 35°20' E 139°41'0 0.1
2016-Apr-24 14:32N 35°20' E 139°41'0 0.0
2016-Apr-24 13:32N 35°20' E 139°41'0 0.5
2016-Apr-24 12:33N 35°19' E 139°42'1211.8
2016-Apr-24 11:33N 35°08' E 139°45'  
2016-Apr-21 14:20N 34°27' E 138°28'6316.7
2016-Apr-21 10:31N 35°01' E 139°33'1616.5
2016-Apr-21 09:33N 35°13' E 139°46'9 8.2
2016-Apr-21 08:31N 35°19' E 139°39'0 0.0
2016-Apr-21 07:19N 35°19' E 139°39'0 0.0
2016-Apr-21 06:31N 35°19' E 139°39'0 0.0
2016-Apr-21 05:31N 35°19' E 139°39'0 0.0
2016-Apr-21 04:31N 35°19' E 139°39'0 0.5
2016-Apr-21 03:34N 35°19' E 139°40'10 9.6
2016-Apr-21 02:34N 35°11' E 139°47'2317.1
2016-Apr-21 01:11N 34°54' E 139°27'  
2016-Apr-18 15:15N 34°30' E 138°32'5116.5
2016-Apr-18 12:10N 34°54' E 139°27'1117.7
2016-Apr-18 11:32N 35°02' E 139°37'1515.4
2016-Apr-18 10:34N 35°15' E 139°46'7 6.5
2016-Apr-18 09:28N 35°19' E 139°39'0 0.0
2016-Apr-18 08:22N 35°19' E 139°39'0 0.0
2016-Apr-18 07:31N 35°19' E 139°39'0 0.0
2016-Apr-18 06:31N 35°19' E 139°39'0 0.0
2016-Apr-18 05:31N 35°19' E 139°39'0 0.0
2016-Apr-18 04:25N 35°19' E 139°39'0 0.0
2016-Apr-18 03:25N 35°19' E 139°39'0 0.0
2016-Apr-18 02:31N 35°19' E 139°39'0 0.0
2016-Apr-18 01:28N 35°19' E 139°39'0 0.0
2016-Apr-18 00:19N 35°19' E 139°39'0 0.0
2016-Apr-17 23:31N 35°19' E 139°39'2 1.9
2016-Apr-17 22:33N 35°19' E 139°41'0 0.0
2016-Apr-17 21:33N 35°19' E 139°41'0 0.1
2016-Apr-17 20:32N 35°19' E 139°41'0 0.0
2016-Apr-17 19:32N 35°19' E 139°41'0 0.0
2016-Apr-17 18:31N 35°19' E 139°41'0 0.0
2016-Apr-17 17:33N 35°19' E 139°41'0 0.0
2016-Apr-17 16:30N 35°19' E 139°41'0 0.1
2016-Apr-17 15:30N 35°19' E 139°41'0 0.1
2016-Apr-17 14:33N 35°19' E 139°41'0 0.0
2016-Apr-17 13:23N 35°19' E 139°41'0 0.0
2016-Apr-17 12:33N 35°19' E 139°41'9 9.3
2016-Apr-17 11:33N 35°11' E 139°47'  

Dump ship's entire track history